createdAt,value
2022-08-03T00:00:06.877Z,73.96
2022-08-03T00:02:08.258Z,74.3
2022-08-03T00:04:09.932Z,74.43
2022-08-03T00:06:54.992Z,74.55
2022-08-03T00:08:56.031Z,74.36
2022-08-03T00:10:57.279Z,74.2
2022-08-03T00:12:58.616Z,74.74
2022-08-03T00:15:00.413Z,74.86
2022-08-03T00:17:02.177Z,75
2022-08-03T00:21:04.270Z,75.06
2022-08-03T00:23:05.207Z,75.13
2022-08-03T00:25:06.290Z,75.93
2022-08-03T00:27:07.625Z,76.05
2022-08-03T00:29:08.853Z,75.99
2022-08-03T00:31:13.280Z,76.13
2022-08-03T00:33:11.274Z,76.89
2022-08-03T00:35:18.406Z,76.87
2022-08-03T00:37:13.971Z,76.99
2022-08-03T00:39:15.863Z,76.82
2022-08-03T00:41:17.640Z,77.01
2022-08-03T00:43:18.743Z,77.11
2022-08-03T00:45:19.855Z,77.83
2022-08-03T00:47:21.403Z,78.3
2022-08-03T00:49:23.096Z,78.23
2022-08-03T00:53:26.528Z,77.76
2022-08-03T00:55:28.050Z,77.63
2022-08-03T00:57:29.595Z,77.76
2022-08-03T00:59:30.515Z,77.91
2022-08-03T01:03:32.814Z,77.1
2022-08-03T01:05:33.732Z,77.16
2022-08-03T01:07:34.868Z,77.34
2022-08-03T01:09:36.501Z,77.41
2022-08-03T01:11:59.712Z,77.45
2022-08-03T01:14:01.782Z,77.86
2022-08-03T01:15:41.361Z,78.83
2022-08-03T01:17:42.868Z,79.34
2022-08-03T01:19:44.370Z,79.21
2022-08-03T01:21:45.799Z,79.34
2022-08-03T01:23:46.892Z,79.8
2022-08-03T01:25:48.698Z,79.81
2022-08-03T01:27:49.859Z,79.97
2022-08-03T01:29:50.919Z,80.37
2022-08-03T01:32:51.877Z,80.05
2022-08-03T01:33:53.246Z,80.42
2022-08-03T01:35:54.927Z,81.26
2022-08-03T01:37:56.370Z,81.22
2022-08-03T01:39:57.668Z,80.71
2022-08-03T01:41:59.213Z,80.41
2022-08-03T01:44:28.947Z,80.24
2022-08-03T01:46:01.496Z,80.15
2022-08-03T01:48:02.557Z,79.85
2022-08-03T01:50:04.481Z,79.72
2022-08-03T01:52:05.897Z,80.08
2022-08-03T01:54:07.499Z,80.12
2022-08-03T01:56:08.798Z,80.87
2022-08-03T01:58:10.169Z,80.5
2022-08-03T02:02:15.692Z,81.15
2022-08-03T02:04:15.269Z,81.09
2022-08-03T02:06:58.413Z,82.09
2022-08-03T02:08:17.295Z,82.07
2022-08-03T02:10:22.219Z,82.07
2022-08-03T02:12:19.619Z,82.12
2022-08-03T02:14:21.508Z,81.64
2022-08-03T02:16:23.155Z,81.65
2022-08-03T02:18:24.229Z,81.82
2022-08-03T02:20:25.129Z,81.99
2022-08-03T02:22:26.555Z,83.47
2022-08-03T02:24:27.698Z,83.43
2022-08-03T02:26:29.497Z,83.44
2022-08-03T02:28:30.538Z,83.14
2022-08-03T02:30:31.691Z,83
2022-08-03T02:32:33.567Z,82.87
2022-08-03T02:34:35.050Z,82.63
2022-08-03T02:36:36.446Z,82.8
2022-08-03T02:38:38.196Z,82.9
2022-08-03T02:40:39.883Z,83.26
2022-08-03T02:44:42.908Z,83.88
2022-08-03T02:46:44.589Z,84.44
2022-08-03T02:48:45.650Z,85.01
2022-08-03T02:50:47.557Z,85.26
2022-08-03T02:52:48.730Z,85.68
2022-08-03T02:54:50.526Z,85.11
2022-08-03T02:56:52.267Z,84.76
2022-08-03T02:58:53.506Z,84.19
2022-08-03T03:00:54.881Z,84.1
2022-08-03T03:02:56.396Z,84.51
2022-08-03T03:04:58.126Z,84.4
2022-08-03T03:06:59.601Z,83.81
2022-08-03T03:09:01.452Z,83.55
2022-08-03T03:11:03.154Z,83.77
2022-08-03T03:13:04.855Z,83.8
2022-08-03T03:17:07.394Z,83.37
2022-08-03T03:19:09.206Z,83.55
2022-08-03T03:21:10.510Z,83.96
2022-08-03T03:23:11.566Z,84.27
2022-08-03T03:27:16.454Z,84.63
2022-08-03T03:29:16.411Z,85.04
2022-08-03T03:31:17.556Z,85.5
2022-08-03T03:33:18.862Z,85.54
2022-08-03T03:35:20.156Z,85.68
2022-08-03T03:37:21.713Z,85.64
2022-08-03T03:39:23.021Z,85.65
2022-08-03T03:41:24.577Z,85.51
2022-08-03T03:43:26.317Z,85.61
2022-08-03T03:45:28.073Z,86.29
2022-08-03T03:47:32.904Z,86.34
2022-08-03T03:49:30.642Z,86.02
2022-08-03T03:51:32.410Z,86.32
2022-08-03T03:53:34.032Z,86.42
2022-08-03T03:55:35.871Z,86.33
2022-08-03T03:59:37.751Z,85.1
2022-08-03T04:01:39.601Z,84.86
2022-08-03T04:03:41.187Z,84.6
2022-08-03T04:05:45.827Z,84.3
2022-08-03T04:09:45.257Z,84.78
2022-08-03T04:11:46.682Z,84.96
2022-08-03T04:13:48.601Z,84.9
2022-08-03T04:15:50.118Z,85.05
2022-08-03T04:17:51.506Z,85.53
2022-08-03T04:19:53.450Z,85.81
2022-08-03T04:21:56.914Z,86.39
2022-08-03T04:23:56.043Z,86.08
2022-08-03T04:25:57.297Z,86.08
2022-08-03T04:28:07.912Z,86.28
2022-08-03T04:30:00.500Z,86.63
2022-08-03T04:32:03.017Z,87.19
2022-08-03T04:34:03.724Z,87.7
2022-08-03T04:36:05.592Z,87.82
2022-08-03T04:38:07.124Z,87.98
2022-08-03T04:40:08.440Z,88.09
2022-08-03T04:42:09.592Z,88.19
2022-08-03T04:44:11.408Z,88.54
2022-08-03T04:46:12.910Z,87.93
2022-08-03T04:48:14.664Z,86.06
2022-08-03T04:50:19.477Z,80.68
2022-08-03T04:52:16.941Z,78.02
2022-08-03T04:54:17.611Z,78
2022-08-03T04:58:20.492Z,75.77
2022-08-03T05:00:21.812Z,75.19
2022-08-03T05:02:23.524Z,75.53
2022-08-03T05:04:24.542Z,73.43
2022-08-03T05:06:26.179Z,72.76
2022-08-03T05:08:27.981Z,72.96
2022-08-03T05:10:28.622Z,70.4
2022-08-03T05:12:32.654Z,69.4
2022-08-03T05:14:31.985Z,69.04
2022-08-03T05:16:33.706Z,71.95
2022-08-03T05:18:34.613Z,72.67
2022-08-03T05:20:36.032Z,74.91
2022-08-03T05:22:37.136Z,74.81
2022-08-03T05:24:38.514Z,74.62
2022-08-03T05:26:39.981Z,73.96
2022-08-03T05:28:50.028Z,72.29
2022-08-03T05:30:43.023Z,69.86
2022-08-03T05:32:44.580Z,69.5
2022-08-03T05:34:46.332Z,70.96
2022-08-03T05:36:48.082Z,68.54
2022-08-03T05:38:49.725Z,65.12
2022-08-03T05:40:57.125Z,64.12
2022-08-03T05:42:52.399Z,63.78
2022-08-03T05:44:54.150Z,64.04
2022-08-03T05:46:55.456Z,61.78
2022-08-03T05:50:57.838Z,61.67
2022-08-03T05:52:58.944Z,61.85
2022-08-03T05:55:00.062Z,60.21
2022-08-03T05:57:00.965Z,59.75
2022-08-03T05:59:16.473Z,61.68
2022-08-03T06:01:03.438Z,62.25
2022-08-03T06:03:04.352Z,62.87
2022-08-03T06:05:05.870Z,61.73
2022-08-03T06:07:07.131Z,61.21
2022-08-03T06:09:08.502Z,60.41
2022-08-03T06:11:09.587Z,63.24
2022-08-03T06:13:10.516Z,62.08
2022-08-03T06:15:11.791Z,62.92
2022-08-03T06:17:12.666Z,61.87
2022-08-03T06:19:14.349Z,66.21
2022-08-03T06:23:17.945Z,62.87
2022-08-03T06:25:18.192Z,62.4
2022-08-03T06:27:19.273Z,60.37
2022-08-03T06:29:20.508Z,62.92
2022-08-03T06:33:22.592Z,62.87
2022-08-03T06:35:23.497Z,62.27
2022-08-03T06:37:24.935Z,60.34
2022-08-03T06:39:26.643Z,58.21
2022-08-03T06:41:28.080Z,60.42
2022-08-03T06:43:29.686Z,55.87
2022-08-03T06:45:31.647Z,55.3
2022-08-03T06:47:32.244Z,55.54
2022-08-03T06:49:33.366Z,54.6
2022-08-03T06:50:18.500Z,54.54
2022-08-03T06:52:37.390Z,53.85
2022-08-03T06:54:19.194Z,53.76
2022-08-03T06:56:20.106Z,52.44
2022-08-03T06:58:21.378Z,50.57
2022-08-03T07:00:22.646Z,49.57
2022-08-03T07:02:23.791Z,50.81
2022-08-03T07:04:24.983Z,52.67
2022-08-03T07:06:26.080Z,53.2
2022-08-03T07:08:33.305Z,52.38
2022-08-03T07:10:27.835Z,52.21
2022-08-03T07:12:29.023Z,49.66
2022-08-03T07:14:30.419Z,50.94
2022-08-03T07:16:31.627Z,49.9
2022-08-03T07:18:32.530Z,49.25
2022-08-03T07:20:35.123Z,48.81
2022-08-03T07:22:35.968Z,50.62
2022-08-03T07:26:38.335Z,52.39
2022-08-03T07:28:39.202Z,52.3
2022-08-03T07:30:40.938Z,49.41
2022-08-03T07:32:49.922Z,49.49
2022-08-03T07:34:43.901Z,49.97
2022-08-03T07:36:44.839Z,50.85
2022-08-03T07:38:46.077Z,49.8
2022-08-03T07:40:47.626Z,46.9
2022-08-03T07:42:52.242Z,48.44
2022-08-03T07:44:50.548Z,50.24
2022-08-03T07:46:52.045Z,47.68
2022-08-03T07:48:53.363Z,47.53
2022-08-03T07:50:54.207Z,47.26
2022-08-03T07:52:55.174Z,45.97
2022-08-03T07:54:56.369Z,46.66
2022-08-03T07:58:59.718Z,46.22
2022-08-03T08:01:00.581Z,45.95
2022-08-03T08:03:01.255Z,45.98
2022-08-03T08:05:05.617Z,45.27
2022-08-03T08:09:04.911Z,44.01
2022-08-03T08:11:06.356Z,44.43
2022-08-03T08:15:09.003Z,44.33
2022-08-03T08:17:10.423Z,43.87
2022-08-03T08:19:11.613Z,40.79
2022-08-03T08:21:12.710Z,41.93
2022-08-03T08:23:31.938Z,41.68
2022-08-03T08:25:14.891Z,42.12
2022-08-03T08:27:16.308Z,39.6
2022-08-03T08:29:17.215Z,39.11
2022-08-03T08:31:18.685Z,40.05
2022-08-03T08:33:22.211Z,38.86
2022-08-03T08:37:23.001Z,39.73
2022-08-03T08:39:24.526Z,40.77
2022-08-03T08:41:32.203Z,38.62
2022-08-03T08:43:26.692Z,39.02
2022-08-03T08:45:27.713Z,39.96
2022-08-03T08:47:28.473Z,38.2
2022-08-03T08:49:30.286Z,37.45
2022-08-03T08:51:51.071Z,36.54
2022-08-03T08:53:32.390Z,36.15
2022-08-03T08:55:56.682Z,36.35
2022-08-03T08:57:42.640Z,36.25
2022-08-03T08:59:48.101Z,36.66
2022-08-03T09:01:36.574Z,35.01
2022-08-03T09:03:37.884Z,35.11
2022-08-03T09:07:40.050Z,36.74
2022-08-03T09:10:04.727Z,36.12
2022-08-03T09:11:51.857Z,36.35
2022-08-03T09:13:44.630Z,36.19
2022-08-03T09:15:57.230Z,36.59
2022-08-03T09:17:50.802Z,35.56
2022-08-03T09:20:03.354Z,34.88
2022-08-03T09:21:49.476Z,35.81
2022-08-03T09:25:52.005Z,35.53
2022-08-03T09:27:53.551Z,36.54
2022-08-03T09:29:54.156Z,35.51
2022-08-03T09:31:55.030Z,36.85
2022-08-03T09:33:56.093Z,36.6
2022-08-03T09:35:57.693Z,35.92
2022-08-03T09:39:59.468Z,34.45
2022-08-03T09:42:01.038Z,35.14
2022-08-03T09:44:02.724Z,33.84
2022-08-03T09:46:04.122Z,33.83
2022-08-03T09:48:05.196Z,33.29
2022-08-03T09:50:06.851Z,33.94
2022-08-03T09:52:25.919Z,33.99
2022-08-03T09:54:15.168Z,33.56
2022-08-03T09:56:33.185Z,33.5
2022-08-03T10:00:12.354Z,34.93
2022-08-03T10:02:13.820Z,33.95
2022-08-03T10:04:15.305Z,35.66
2022-08-03T10:06:16.767Z,35.3
2022-08-03T10:08:18.042Z,34.75
2022-08-03T10:10:29.263Z,34.28
2022-08-03T10:12:20.212Z,33.38
2022-08-03T10:14:22.039Z,34.58
2022-08-03T10:16:25.419Z,34.1
2022-08-03T10:18:25.183Z,33.98
2022-08-03T10:20:26.350Z,34.47
2022-08-03T10:22:27.328Z,33.86
2022-08-03T10:24:28.759Z,34.4
2022-08-03T10:26:29.535Z,33.17
2022-08-03T10:28:31.235Z,32.59
2022-08-03T10:30:32.645Z,32.97
2022-08-03T10:32:34.333Z,33.72
2022-08-03T10:34:35.676Z,34.3
2022-08-03T10:36:36.492Z,33.63
2022-08-03T10:38:37.556Z,33.54
2022-08-03T10:40:49.262Z,34.04
2022-08-03T10:42:39.955Z,32.49
2022-08-03T10:44:41.181Z,32.46
2022-08-03T10:46:44.656Z,33.18
2022-08-03T10:48:43.617Z,33.55
2022-08-03T10:50:44.455Z,33.07
2022-08-03T10:52:48.936Z,32.3
2022-08-03T10:54:46.983Z,32.37
2022-08-03T10:56:49.636Z,33.56
2022-08-03T10:58:53.593Z,31.87
2022-08-03T11:00:50.706Z,32.2
2022-08-03T11:02:52.384Z,31.46
2022-08-03T11:04:53.524Z,32.53
2022-08-03T11:06:54.819Z,31.25
2022-08-03T11:08:56.115Z,32.87
2022-08-03T11:10:57.176Z,31.09
2022-08-03T11:12:58.719Z,30.94
2022-08-03T11:14:59.464Z,32.04
2022-08-03T11:17:00.554Z,30.7
2022-08-03T11:21:02.580Z,30.14
2022-08-03T11:23:03.615Z,30.15
2022-08-03T11:25:04.863Z,30.18
2022-08-03T11:27:05.972Z,30.54
2022-08-03T11:29:07.065Z,29.32
2022-08-03T11:31:08.518Z,29.63
2022-08-03T11:33:09.273Z,30.64
2022-08-03T11:35:10.251Z,30.62
2022-08-03T11:37:11.193Z,31.42
2022-08-03T11:39:12.303Z,30.91
2022-08-03T11:41:13.428Z,30.74
2022-08-03T11:43:14.814Z,31.29
2022-08-03T11:47:16.982Z,30.24
2022-08-03T11:49:17.852Z,30.26
2022-08-03T11:51:18.729Z,31.43
2022-08-03T11:53:20.412Z,29.62
2022-08-03T11:55:21.455Z,29.87
2022-08-03T11:57:22.530Z,30.14
2022-08-03T11:59:23.744Z,30.7
2022-08-03T12:01:25.352Z,29.52
2022-08-03T12:03:27.014Z,31.03
2022-08-03T12:05:27.982Z,29.46
2022-08-03T12:08:02.924Z,28.47
2022-08-03T12:09:30.441Z,27.14
2022-08-03T12:11:31.747Z,27.58
2022-08-03T12:13:57.175Z,28.21
2022-08-03T12:15:34.112Z,27.97
2022-08-03T12:17:35.458Z,28.6
2022-08-03T12:19:37.036Z,28.55
2022-08-03T12:21:38.036Z,27.51
2022-08-03T12:23:39.168Z,27.77
2022-08-03T12:25:40.146Z,27.84
2022-08-03T12:29:43.187Z,27.86
2022-08-03T12:31:44.528Z,28.02
2022-08-03T12:33:45.577Z,30.25
2022-08-03T12:35:52.411Z,29.35
2022-08-03T12:37:48.554Z,28.25
2022-08-03T12:40:00.825Z,28.51
2022-08-03T12:41:51.399Z,27.83
2022-08-03T12:43:52.673Z,28.2
2022-08-03T12:45:54.215Z,29.59
2022-08-03T12:47:54.959Z,27.56
2022-08-03T12:49:55.824Z,28.18
2022-08-03T12:51:57.038Z,27.71
2022-08-03T12:53:58.452Z,27.85
2022-08-03T12:56:04.894Z,28.53
2022-08-03T12:58:01.194Z,28.31
2022-08-03T13:00:02.285Z,27.81
2022-08-03T13:02:04.411Z,28.1
2022-08-03T13:04:04.445Z,27.65
2022-08-03T13:06:05.862Z,28.3
2022-08-03T13:08:06.565Z,27.99
2022-08-03T13:10:08.450Z,27.44
2022-08-03T13:12:08.919Z,26.59
2022-08-03T13:14:10.542Z,27.8
2022-08-03T13:16:14.611Z,27.6
2022-08-03T13:18:13.160Z,26.48
2022-08-03T13:20:14.018Z,26.97
2022-08-03T13:22:14.890Z,26.34
2022-08-03T13:24:16.039Z,26.6
2022-08-03T13:28:18.511Z,27.34
2022-08-03T13:30:29.856Z,26.74
2022-08-03T13:34:23.705Z,27.82
2022-08-03T13:35:22.349Z,26.36
2022-08-03T13:39:24.570Z,27.27
2022-08-03T13:41:29.095Z,26.82
2022-08-03T13:43:36.441Z,26.63
2022-08-03T13:45:27.585Z,26.5
2022-08-03T13:49:30.732Z,26.24
2022-08-03T13:51:31.760Z,25.98
2022-08-03T13:53:32.478Z,26.08
2022-08-03T13:55:33.589Z,26.01
2022-08-03T13:58:01.990Z,25.61
2022-08-03T13:59:36.027Z,25.15
2022-08-03T14:01:53.921Z,26.3
2022-08-03T14:03:38.311Z,25.69
2022-08-03T14:05:39.471Z,24.51
2022-08-03T14:09:42.109Z,25.54
2022-08-03T14:12:06.847Z,25.98
2022-08-03T14:13:43.987Z,26
2022-08-03T14:15:49.571Z,26.01
2022-08-03T14:17:49.806Z,25.8
2022-08-03T14:19:52.901Z,26.47
2022-08-03T14:21:49.360Z,26.01
2022-08-03T14:23:49.551Z,26.74
2022-08-03T14:27:52.105Z,25.96
2022-08-03T14:29:53.271Z,26.5
2022-08-03T14:32:10.660Z,25.21
2022-08-03T14:33:55.269Z,26.26
2022-08-03T14:37:57.895Z,24.2
2022-08-03T14:40:00.190Z,25.47
2022-08-03T14:44:02.442Z,25.2
2022-08-03T14:46:03.196Z,25.2
2022-08-03T14:49:02.989Z,24.83
2022-08-03T14:50:35.143Z,24.48
2022-08-03T14:54:08.222Z,25
2022-08-03T14:56:10.317Z,25.1
2022-08-03T14:58:19.839Z,26.12
2022-08-03T15:00:11.930Z,25.4
2022-08-03T15:02:18.538Z,25.93
2022-08-03T15:04:13.550Z,26.75
2022-08-03T15:06:14.874Z,25.88
2022-08-03T15:08:16.164Z,26.47
2022-08-03T15:10:16.929Z,26.5
2022-08-03T15:12:18.644Z,26.51
2022-08-03T15:14:19.928Z,26.17
2022-08-03T15:16:20.929Z,27.84
2022-08-03T15:18:22.484Z,26.45
2022-08-03T15:20:36.570Z,25.84
2022-08-03T15:22:34.454Z,25.52
2022-08-03T15:24:26.773Z,25.45
2022-08-03T15:26:34.096Z,25.11
2022-08-03T15:28:29.282Z,25.01
2022-08-03T15:30:30.580Z,24.16
2022-08-03T15:32:31.474Z,24.5
2022-08-03T15:36:33.894Z,24.49
2022-08-03T15:38:34.874Z,24.87
2022-08-03T15:40:36.488Z,25.83
2022-08-03T15:42:37.883Z,26.09
2022-08-03T15:44:38.924Z,26.49
2022-08-03T15:46:40.637Z,26.35
2022-08-03T15:48:42.141Z,25.49
2022-08-03T15:50:43.613Z,25.06
2022-08-03T15:52:45.116Z,25.18
2022-08-03T15:54:46.759Z,25.1
2022-08-03T15:56:48.308Z,24.95
2022-08-03T15:58:59.046Z,24.98
2022-08-03T16:00:50.661Z,25.42
2022-08-03T16:02:55.665Z,24.42
2022-08-03T16:04:52.999Z,24.2
2022-08-03T16:06:54.297Z,24.24
2022-08-03T16:08:55.215Z,24.4
2022-08-03T16:10:56.303Z,24.88
2022-08-03T16:12:57.829Z,24.56
2022-08-03T16:14:58.854Z,23.99
2022-08-03T16:16:59.807Z,24.1
2022-08-03T16:19:01.210Z,25.38
2022-08-03T16:21:02.471Z,25.21
2022-08-03T16:25:04.970Z,25.59
2022-08-03T16:27:05.887Z,25.43
2022-08-03T16:29:08.402Z,24.58
2022-08-03T16:31:08.508Z,25.53
2022-08-03T16:35:19.141Z,25.17
2022-08-03T16:37:35.633Z,25.09
2022-08-03T16:39:13.128Z,24.37
2022-08-03T16:41:14.504Z,24.31
2022-08-03T16:43:18.012Z,24.67
2022-08-03T16:45:17.252Z,24.47
2022-08-03T16:47:22.019Z,24.76
2022-08-03T16:49:53.334Z,25.9
2022-08-03T16:51:20.903Z,25.37
2022-08-03T16:53:33.390Z,25.17
2022-08-03T16:55:43.171Z,25.48
2022-08-03T16:57:55.690Z,25.66
2022-08-03T16:59:36.110Z,25.04
2022-08-03T17:01:29.258Z,25.16
2022-08-03T17:03:27.968Z,25.65
2022-08-03T17:05:32.556Z,24.57
2022-08-03T17:07:30.474Z,24.7
2022-08-03T17:09:38.102Z,24.45
2022-08-03T17:11:32.983Z,24.38
2022-08-03T17:13:38.996Z,24.92
2022-08-03T17:17:37.775Z,25.66
2022-08-03T17:19:38.701Z,26.31
2022-08-03T17:21:40.130Z,26.96
2022-08-03T17:23:41.266Z,26.99
2022-08-03T17:26:01.935Z,27.5
2022-08-03T17:28:42.678Z,27.93
2022-08-03T17:29:45.369Z,27.96
2022-08-03T17:31:48.652Z,28.48
2022-08-03T17:33:54.539Z,28.79
2022-08-03T17:35:47.933Z,28.9
2022-08-03T17:37:50.843Z,28.88
2022-08-03T17:39:58.527Z,28.65
2022-08-03T17:41:52.012Z,28.73
2022-08-03T17:44:14.720Z,28.82
2022-08-03T17:45:54.552Z,28.98
2022-08-03T17:47:56.996Z,29.14
2022-08-03T17:49:57.780Z,29.51
2022-08-03T17:51:59.522Z,29.64
2022-08-03T17:54:00.753Z,29.48
2022-08-03T17:56:04.067Z,29.69
2022-08-03T17:58:03.381Z,29.79
2022-08-03T18:00:04.487Z,30.15
2022-08-03T18:02:10.485Z,30.43
2022-08-03T18:06:08.835Z,32.05
2022-08-03T18:08:11.279Z,32.21
2022-08-03T18:12:12.591Z,31.94
2022-08-03T18:14:16.182Z,32.38
2022-08-03T18:16:24.286Z,33.41
2022-08-03T18:18:16.851Z,33.14
2022-08-03T18:20:32.560Z,33.43
2022-08-03T18:24:20.142Z,34.55
2022-08-03T18:26:21.288Z,34.29
2022-08-03T18:28:23.066Z,34.5
2022-08-03T18:30:27.625Z,34.49
2022-08-03T18:32:26.258Z,34.71
2022-08-03T18:34:32.754Z,35.4
2022-08-03T18:36:29.524Z,35.58
2022-08-03T18:38:29.801Z,35.24
2022-08-03T18:40:31.170Z,35.61
2022-08-03T18:42:32.659Z,35.79
2022-08-03T18:44:37.840Z,35.86
2022-08-03T18:46:35.179Z,36.36
2022-08-03T18:48:36.235Z,36.64
2022-08-03T18:50:39.032Z,36.94
2022-08-03T18:52:39.630Z,37.58
2022-08-03T18:54:44.605Z,37.75
2022-08-03T18:58:44.085Z,38.42
2022-08-03T19:00:54.551Z,38.73
2022-08-03T19:02:48.589Z,39.27
2022-08-03T19:04:48.141Z,39.37
2022-08-03T19:06:49.808Z,39.2
2022-08-03T19:08:51.183Z,39.34
2022-08-03T19:10:57.589Z,38.24
2022-08-03T19:12:53.991Z,38.27
2022-08-03T19:14:54.873Z,38.62
2022-08-03T19:16:56.561Z,39.02
2022-08-03T19:18:57.395Z,39.42
2022-08-03T19:20:58.737Z,39.86
2022-08-03T19:23:00.221Z,40.28
2022-08-03T19:25:01.843Z,40.39
2022-08-03T19:27:03.191Z,40.9
2022-08-03T19:31:06.333Z,42.09
2022-08-03T19:33:06.263Z,42.76
2022-08-03T19:35:10.118Z,43.2
2022-08-03T19:37:09.331Z,44.01
2022-08-03T19:41:12.199Z,45
2022-08-03T19:43:13.227Z,45.05
2022-08-03T19:45:14.767Z,45.75
2022-08-03T19:47:16.856Z,48.1
2022-08-03T19:49:17.567Z,47.56
2022-08-03T19:51:18.531Z,47.11
2022-08-03T19:53:19.790Z,46.8
2022-08-03T19:55:21.318Z,46.33
2022-08-03T19:57:23.263Z,46.27
2022-08-03T19:59:24.123Z,46.1
2022-08-03T20:01:25.436Z,45.28
2022-08-03T20:03:26.345Z,45.92
2022-08-03T20:05:28.105Z,45.41
2022-08-03T20:07:28.950Z,45.72
2022-08-03T20:09:30.650Z,45.25
2022-08-03T20:11:31.679Z,44.87
2022-08-03T20:13:38.867Z,45.43
2022-08-03T20:15:34.682Z,45.45
2022-08-03T20:17:55.683Z,46.13
2022-08-03T20:19:37.197Z,46.02
2022-08-03T20:22:22.032Z,47.09
2022-08-03T20:24:23.611Z,46.71
2022-08-03T20:26:23.488Z,47.91
2022-08-03T20:28:26.589Z,46.99
2022-08-03T20:30:26.365Z,48.62
2022-08-03T20:34:28.724Z,49.57
2022-08-03T20:36:30.214Z,50.2
2022-08-03T20:38:31.274Z,50.82
2022-08-03T20:40:32.996Z,50.94
2022-08-03T20:44:35.448Z,50.77
2022-08-03T20:46:53.067Z,50.99
2022-08-03T20:48:37.628Z,50.68
2022-08-03T20:50:38.609Z,50.93
2022-08-03T20:52:43.897Z,51.04
2022-08-03T20:54:40.561Z,51.8
2022-08-03T20:56:42.275Z,52.03
2022-08-03T20:58:43.448Z,51.74
2022-08-03T21:00:44.470Z,52.33
2022-08-03T21:02:45.266Z,51.77
2022-08-03T21:04:47.391Z,51.82
2022-08-03T21:06:53.033Z,51.81
2022-08-03T21:08:49.905Z,52.03
2022-08-03T21:10:51.363Z,52.61
2022-08-03T21:12:53.110Z,52.64
2022-08-03T21:13:00.032Z,32.27
2022-08-03T21:14:54.161Z,52.66
2022-08-03T21:16:55.588Z,52.53
2022-08-03T21:18:57.370Z,52.03
2022-08-03T21:22:59.165Z,53.55
2022-08-03T21:25:00.983Z,53.3
2022-08-03T21:27:01.937Z,53.68
2022-08-03T21:29:03.734Z,54.66
2022-08-03T21:33:06.445Z,55.66
2022-08-03T21:35:07.782Z,55.74
2022-08-03T21:37:08.886Z,54.87
2022-08-03T21:39:10.553Z,53.96
2022-08-03T21:41:11.801Z,53.54
2022-08-03T21:43:12.639Z,53.88
2022-08-03T21:45:16.691Z,54.23
2022-08-03T21:47:15.306Z,54.38
2022-08-03T21:49:52.254Z,55.39
2022-08-03T21:51:17.627Z,55.86
2022-08-03T21:53:18.933Z,56.43
2022-08-03T21:55:21.156Z,57.39
2022-08-03T21:57:22.537Z,57.48
2022-08-03T21:59:23.721Z,57.38
2022-08-03T22:01:25.466Z,57.58
2022-08-03T22:03:26.278Z,57.51
2022-08-03T22:05:29.222Z,57.89
2022-08-03T22:07:28.601Z,58.07
2022-08-03T22:09:30.202Z,58.95
2022-08-03T22:11:31.901Z,59.02
2022-08-03T22:15:35.091Z,59.88
2022-08-03T22:17:54.392Z,59.96
2022-08-03T22:19:37.455Z,60.22
2022-08-03T22:21:38.908Z,59.83
2022-08-03T22:23:40.042Z,60.12
2022-08-03T22:25:41.507Z,60.33
2022-08-03T22:27:42.824Z,60.68
2022-08-03T22:31:57.826Z,61.26
2022-08-03T22:33:47.140Z,60.87
2022-08-03T22:35:48.513Z,61.01
2022-08-03T22:37:49.444Z,60.95
2022-08-03T22:39:51.116Z,59.55
2022-08-03T22:41:52.926Z,59.88
2022-08-03T22:43:54.128Z,60.39
2022-08-03T22:46:08.589Z,60.31
2022-08-03T22:47:56.565Z,60.51
2022-08-03T22:50:30.806Z,61.88
2022-08-03T22:51:59.632Z,62.68
2022-08-03T22:54:00.775Z,62.92
2022-08-03T22:58:03.943Z,62.2
2022-08-03T23:00:04.915Z,62.49
2022-08-03T23:02:14.996Z,62.94
2022-08-03T23:04:07.410Z,63.2
2022-08-03T23:06:08.653Z,62.79
2022-08-03T23:08:09.970Z,61.89
2022-08-03T23:10:11.369Z,61.71
2022-08-03T23:12:13.159Z,62.1
2022-08-03T23:14:14.686Z,62.18
2022-08-03T23:16:16.202Z,62.53
2022-08-03T23:18:17.130Z,62.07
2022-08-03T23:20:18.555Z,62.37
2022-08-03T23:22:29.853Z,62.28
2022-08-03T23:24:29.131Z,62.49
2022-08-03T23:26:22.631Z,62.97
2022-08-03T23:30:31.402Z,63.95
2022-08-03T23:32:27.094Z,64.37
2022-08-03T23:34:28.719Z,64.7
2022-08-03T23:36:31.909Z,65.16
2022-08-03T23:40:33.414Z,65.74
2022-08-03T23:42:35.016Z,65.92
2022-08-03T23:44:36.180Z,65.96
2022-08-03T23:46:37.909Z,65.8
2022-08-03T23:48:38.986Z,66.28
2022-08-03T23:50:40.321Z,65.89
2022-08-03T23:52:42.048Z,66.24
2022-08-03T23:54:43.658Z,67.15
2022-08-03T23:56:45.220Z,67.39
2022-08-03T23:58:46.634Z,67.7
